sensor_id;sensor_type;location;lat;lon;timestamp;P1;durP1;ratioP1;P2;durP2;ratioP2
34353;SDS011;20618;0.000;0.000;2023-07-29T00:01:33;4.82;;;2.05;;
34353;SDS011;20618;0.000;0.000;2023-07-29T00:04:00;5.97;;;2.15;;
34353;SDS011;20618;0.000;0.000;2023-07-29T00:06:26;5.70;;;2.22;;
34353;SDS011;20618;0.000;0.000;2023-07-29T00:08:52;5.85;;;2.35;;
34353;SDS011;20618;0.000;0.000;2023-07-29T00:11:19;7.03;;;2.10;;
34353;SDS011;20618;0.000;0.000;2023-07-29T00:13:45;4.13;;;1.90;;
34353;SDS011;20618;0.000;0.000;2023-07-29T00:16:12;4.93;;;2.08;;
34353;SDS011;20618;0.000;0.000;2023-07-29T00:18:40;5.88;;;2.05;;
34353;SDS011;20618;0.000;0.000;2023-07-29T00:21:06;5.32;;;2.10;;
34353;SDS011;20618;0.000;0.000;2023-07-29T00:23:33;6.22;;;2.53;;
34353;SDS011;20618;0.000;0.000;2023-07-29T00:25:59;4.13;;;1.70;;
34353;SDS011;20618;0.000;0.000;2023-07-29T00:28:25;4.20;;;2.05;;
34353;SDS011;20618;0.000;0.000;2023-07-29T00:30:51;3.85;;;1.80;;
34353;SDS011;20618;0.000;0.000;2023-07-29T00:33:17;5.65;;;2.10;;
34353;SDS011;20618;0.000;0.000;2023-07-29T00:35:45;7.45;;;2.20;;
34353;SDS011;20618;0.000;0.000;2023-07-29T00:38:11;6.47;;;2.25;;
34353;SDS011;20618;0.000;0.000;2023-07-29T00:40:37;6.70;;;2.08;;
34353;SDS011;20618;0.000;0.000;2023-07-29T00:43:03;4.47;;;2.15;;
34353;SDS011;20618;0.000;0.000;2023-07-29T00:45:30;5.18;;;1.80;;
34353;SDS011;20618;0.000;0.000;2023-07-29T00:47:57;6.55;;;2.40;;
34353;SDS011;20618;0.000;0.000;2023-07-29T00:50:23;3.97;;;1.95;;
34353;SDS011;20618;0.000;0.000;2023-07-29T00:52:50;5.60;;;1.90;;
34353;SDS011;20618;0.000;0.000;2023-07-29T00:55:16;6.15;;;1.83;;
34353;SDS011;20618;0.000;0.000;2023-07-29T00:57:42;5.45;;;2.15;;
34353;SDS011;20618;0.000;0.000;2023-07-29T01:00:13;5.53;;;1.98;;
34353;SDS011;20618;0.000;0.000;2023-07-29T01:02:39;4.95;;;2.20;;
34353;SDS011;20618;0.000;0.000;2023-07-29T01:05:05;6.07;;;1.98;;
34353;SDS011;20618;0.000;0.000;2023-07-29T01:07:33;4.25;;;2.10;;
34353;SDS011;20618;0.000;0.000;2023-07-29T01:17:49;4.25;;;1.83;;
34353;SDS011;20618;0.000;0.000;2023-07-29T01:20:15;3.67;;;1.50;;
34353;SDS011;20618;0.000;0.000;2023-07-29T01:22:42;4.95;;;2.00;;
34353;SDS011;20618;0.000;0.000;2023-07-29T01:25:09;5.10;;;2.03;;
34353;SDS011;20618;0.000;0.000;2023-07-29T01:27:35;4.53;;;2.08;;
34353;SDS011;20618;0.000;0.000;2023-07-29T01:30:01;4.68;;;1.95;;
34353;SDS011;20618;0.000;0.000;2023-07-29T01:35:18;3.92;;;1.75;;
34353;SDS011;20618;0.000;0.000;2023-07-29T01:37:47;7.22;;;2.13;;
34353;SDS011;20618;0.000;0.000;2023-07-29T01:40:14;4.75;;;1.90;;
34353;SDS011;20618;0.000;0.000;2023-07-29T01:42:41;6.75;;;2.10;;
34353;SDS011;20618;0.000;0.000;2023-07-29T01:45:07;3.80;;;2.03;;
34353;SDS011;20618;0.000;0.000;2023-07-29T01:47:33;5.60;;;1.90;;
34353;SDS011;20618;0.000;0.000;2023-07-29T01:49:59;4.55;;;1.92;;
34353;SDS011;20618;0.000;0.000;2023-07-29T01:52:25;6.35;;;1.70;;
34353;SDS011;20618;0.000;0.000;2023-07-29T01:54:52;4.97;;;1.80;;
34353;SDS011;20618;0.000;0.000;2023-07-29T01:57:18;3.90;;;1.70;;
34353;SDS011;20618;0.000;0.000;2023-07-29T01:59:44;6.32;;;1.85;;
34353;SDS011;20618;0.000;0.000;2023-07-29T02:02:10;3.10;;;1.70;;
34353;SDS011;20618;0.000;0.000;2023-07-29T02:04:36;3.95;;;1.90;;
34353;SDS011;20618;0.000;0.000;2023-07-29T02:07:03;5.70;;;2.05;;
34353;SDS011;20618;0.000;0.000;2023-07-29T02:09:29;4.90;;;1.88;;
34353;SDS011;20618;0.000;0.000;2023-07-29T02:11:56;4.25;;;1.85;;
34353;SDS011;20618;0.000;0.000;2023-07-29T02:14:22;4.15;;;1.90;;
34353;SDS011;20618;0.000;0.000;2023-07-29T02:16:48;6.00;;;2.00;;
34353;SDS011;20618;0.000;0.000;2023-07-29T02:19:15;4.97;;;2.10;;
34353;SDS011;20618;0.000;0.000;2023-07-29T02:21:41;4.53;;;2.15;;
34353;SDS011;20618;0.000;0.000;2023-07-29T02:24:07;3.15;;;1.67;;
34353;SDS011;20618;0.000;0.000;2023-07-29T02:26:33;4.45;;;2.08;;
34353;SDS011;20618;0.000;0.000;2023-07-29T02:29:00;3.97;;;1.80;;
34353;SDS011;20618;0.000;0.000;2023-07-29T02:31:26;3.72;;;1.92;;
34353;SDS011;20618;0.000;0.000;2023-07-29T02:33:52;4.18;;;1.52;;
34353;SDS011;20618;0.000;0.000;2023-07-29T02:36:18;5.93;;;1.90;;
34353;SDS011;20618;0.000;0.000;2023-07-29T02:38:44;4.43;;;1.98;;
34353;SDS011;20618;0.000;0.000;2023-07-29T02:41:11;3.30;;;1.95;;
34353;SDS011;20618;0.000;0.000;2023-07-29T02:43:38;4.07;;;2.13;;
34353;SDS011;20618;0.000;0.000;2023-07-29T02:46:06;4.32;;;2.00;;
34353;SDS011;20618;0.000;0.000;2023-07-29T02:48:32;4.28;;;1.80;;
34353;SDS011;20618;0.000;0.000;2023-07-29T02:50:58;4.10;;;1.80;;
34353;SDS011;20618;0.000;0.000;2023-07-29T02:53:24;4.72;;;1.80;;
34353;SDS011;20618;0.000;0.000;2023-07-29T02:55:50;3.75;;;1.70;;
34353;SDS011;20618;0.000;0.000;2023-07-29T02:58:17;4.80;;;1.80;;
34353;SDS011;20618;0.000;0.000;2023-07-29T03:00:43;5.50;;;2.10;;
34353;SDS011;20618;0.000;0.000;2023-07-29T03:03:09;4.65;;;1.67;;
34353;SDS011;20618;0.000;0.000;2023-07-29T03:05:35;3.63;;;1.75;;
34353;SDS011;20618;0.000;0.000;2023-07-29T03:08:02;3.92;;;1.80;;
34353;SDS011;20618;0.000;0.000;2023-07-29T03:10:28;4.80;;;2.00;;
34353;SDS011;20618;0.000;0.000;2023-07-29T03:12:55;4.10;;;1.80;;
34353;SDS011;20618;0.000;0.000;2023-07-29T03:15:24;4.03;;;1.88;;
34353;SDS011;20618;0.000;0.000;2023-07-29T03:17:51;4.20;;;1.87;;
34353;SDS011;20618;0.000;0.000;2023-07-29T03:20:18;4.32;;;1.70;;
34353;SDS011;20618;0.000;0.000;2023-07-29T03:22:44;5.15;;;1.75;;
34353;SDS011;20618;0.000;0.000;2023-07-29T03:25:10;3.45;;;1.50;;
34353;SDS011;20618;0.000;0.000;2023-07-29T03:27:37;2.88;;;1.48;;
34353;SDS011;20618;0.000;0.000;2023-07-29T03:30:05;2.83;;;1.73;;
34353;SDS011;20618;0.000;0.000;2023-07-29T03:32:31;5.25;;;2.00;;
34353;SDS011;20618;0.000;0.000;2023-07-29T03:34:57;4.93;;;2.00;;
34353;SDS011;20618;0.000;0.000;2023-07-29T03:37:23;4.50;;;1.58;;
34353;SDS011;20618;0.000;0.000;2023-07-29T03:39:50;3.95;;;1.80;;
34353;SDS011;20618;0.000;0.000;2023-07-29T03:42:17;5.13;;;1.80;;
34353;SDS011;20618;0.000;0.000;2023-07-29T03:44:43;3.28;;;1.58;;
34353;SDS011;20618;0.000;0.000;2023-07-29T03:47:09;3.65;;;1.88;;
34353;SDS011;20618;0.000;0.000;2023-07-29T03:49:35;2.97;;;1.80;;
34353;SDS011;20618;0.000;0.000;2023-07-29T03:52:02;3.67;;;1.77;;
34353;SDS011;20618;0.000;0.000;2023-07-29T03:54:28;5.55;;;2.13;;
34353;SDS011;20618;0.000;0.000;2023-07-29T03:56:54;3.88;;;1.70;;
34353;SDS011;20618;0.000;0.000;2023-07-29T03:59:20;3.30;;;1.83;;
34353;SDS011;20618;0.000;0.000;2023-07-29T04:01:48;7.07;;;2.15;;
34353;SDS011;20618;0.000;0.000;2023-07-29T04:04:14;4.13;;;2.00;;
34353;SDS011;20618;0.000;0.000;2023-07-29T04:06:40;3.83;;;1.60;;
34353;SDS011;20618;0.000;0.000;2023-07-29T04:09:06;3.35;;;2.00;;
34353;SDS011;20618;0.000;0.000;2023-07-29T04:11:33;4.35;;;2.05;;
34353;SDS011;20618;0.000;0.000;2023-07-29T04:13:59;4.22;;;1.70;;
34353;SDS011;20618;0.000;0.000;2023-07-29T04:16:25;3.13;;;1.52;;
34353;SDS011;20618;0.000;0.000;2023-07-29T04:18:51;5.07;;;2.13;;
34353;SDS011;20618;0.000;0.000;2023-07-29T04:21:17;3.67;;;1.60;;
34353;SDS011;20618;0.000;0.000;2023-07-29T04:23:44;3.20;;;1.60;;
34353;SDS011;20618;0.000;0.000;2023-07-29T04:26:10;3.58;;;1.83;;
34353;SDS011;20618;0.000;0.000;2023-07-29T04:28:36;3.92;;;1.70;;
34353;SDS011;20618;0.000;0.000;2023-07-29T04:31:02;3.60;;;1.55;;
34353;SDS011;20618;0.000;0.000;2023-07-29T04:33:29;4.03;;;1.60;;
34353;SDS011;20618;0.000;0.000;2023-07-29T04:35:56;3.88;;;1.83;;
34353;SDS011;20618;0.000;0.000;2023-07-29T04:38:24;4.97;;;1.90;;
34353;SDS011;20618;0.000;0.000;2023-07-29T04:40:50;2.83;;;1.38;;
34353;SDS011;20618;0.000;0.000;2023-07-29T04:43:16;3.90;;;1.70;;
34353;SDS011;20618;0.000;0.000;2023-07-29T04:45:43;3.97;;;1.65;;
34353;SDS011;20618;0.000;0.000;2023-07-29T04:48:09;4.78;;;1.80;;
34353;SDS011;20618;0.000;0.000;2023-07-29T04:50:35;5.13;;;1.90;;
34353;SDS011;20618;0.000;0.000;2023-07-29T04:53:01;4.97;;;1.95;;
34353;SDS011;20618;0.000;0.000;2023-07-29T04:55:27;3.20;;;1.33;;
34353;SDS011;20618;0.000;0.000;2023-07-29T04:57:54;4.03;;;1.70;;
34353;SDS011;20618;0.000;0.000;2023-07-29T05:00:20;3.55;;;1.73;;
34353;SDS011;20618;0.000;0.000;2023-07-29T05:02:46;4.45;;;1.80;;
34353;SDS011;20618;0.000;0.000;2023-07-29T05:05:12;4.32;;;1.77;;
34353;SDS011;20618;0.000;0.000;2023-07-29T05:07:38;3.30;;;1.70;;
34353;SDS011;20618;0.000;0.000;2023-07-29T05:10:05;2.72;;;1.77;;
34353;SDS011;20618;0.000;0.000;2023-07-29T05:12:31;3.42;;;1.67;;
34353;SDS011;20618;0.000;0.000;2023-07-29T05:14:58;2.78;;;1.73;;
34353;SDS011;20618;0.000;0.000;2023-07-29T05:17:24;3.33;;;1.63;;
34353;SDS011;20618;0.000;0.000;2023-07-29T05:19:50;3.22;;;1.55;;
34353;SDS011;20618;0.000;0.000;2023-07-29T05:22:16;3.70;;;1.65;;
34353;SDS011;20618;0.000;0.000;2023-07-29T05:24:43;3.33;;;1.60;;
34353;SDS011;20618;0.000;0.000;2023-07-29T05:27:09;4.15;;;1.70;;
34353;SDS011;20618;0.000;0.000;2023-07-29T05:29:35;3.78;;;1.88;;
34353;SDS011;20618;0.000;0.000;2023-07-29T05:32:01;4.43;;;1.73;;
34353;SDS011;20618;0.000;0.000;2023-07-29T05:34:27;3.33;;;1.80;;
34353;SDS011;20618;0.000;0.000;2023-07-29T05:36:53;3.60;;;1.80;;
34353;SDS011;20618;0.000;0.000;2023-07-29T05:39:20;4.38;;;1.73;;
34353;SDS011;20618;0.000;0.000;2023-07-29T05:41:46;3.90;;;1.55;;
34353;SDS011;20618;0.000;0.000;2023-07-29T05:44:12;4.18;;;1.60;;
34353;SDS011;20618;0.000;0.000;2023-07-29T05:46:38;4.38;;;1.95;;
34353;SDS011;20618;0.000;0.000;2023-07-29T05:49:04;4.45;;;1.75;;
34353;SDS011;20618;0.000;0.000;2023-07-29T05:51:30;5.32;;;1.83;;
34353;SDS011;20618;0.000;0.000;2023-07-29T05:53:56;3.33;;;1.70;;
34353;SDS011;20618;0.000;0.000;2023-07-29T05:56:23;4.00;;;1.70;;
34353;SDS011;20618;0.000;0.000;2023-07-29T05:58:49;3.90;;;1.80;;
34353;SDS011;20618;0.000;0.000;2023-07-29T06:01:15;3.47;;;1.90;;
34353;SDS011;20618;0.000;0.000;2023-07-29T06:03:41;4.82;;;1.80;;
34353;SDS011;20618;0.000;0.000;2023-07-29T06:06:08;3.90;;;1.70;;
34353;SDS011;20618;0.000;0.000;2023-07-29T06:08:34;3.63;;;1.80;;
34353;SDS011;20618;0.000;0.000;2023-07-29T06:11:00;3.05;;;1.83;;
34353;SDS011;20618;0.000;0.000;2023-07-29T06:13:26;4.75;;;1.88;;
34353;SDS011;20618;0.000;0.000;2023-07-29T06:15:52;2.90;;;1.42;;
34353;SDS011;20618;0.000;0.000;2023-07-29T06:18:19;3.95;;;1.70;;
34353;SDS011;20618;0.000;0.000;2023-07-29T06:20:45;5.07;;;1.70;;
34353;SDS011;20618;0.000;0.000;2023-07-29T06:23:11;2.53;;;1.40;;
34353;SDS011;20618;0.000;0.000;2023-07-29T06:25:37;3.15;;;1.73;;
34353;SDS011;20618;0.000;0.000;2023-07-29T06:28:03;3.13;;;1.88;;
34353;SDS011;20618;0.000;0.000;2023-07-29T06:30:30;3.22;;;1.70;;
34353;SDS011;20618;0.000;0.000;2023-07-29T06:32:56;4.28;;;1.77;;
34353;SDS011;20618;0.000;0.000;2023-07-29T06:35:22;3.38;;;1.70;;
34353;SDS011;20618;0.000;0.000;2023-07-29T06:37:48;2.15;;;1.50;;
34353;SDS011;20618;0.000;0.000;2023-07-29T06:40:15;4.60;;;2.08;;
34353;SDS011;20618;0.000;0.000;2023-07-29T06:42:41;4.00;;;1.50;;
34353;SDS011;20618;0.000;0.000;2023-07-29T06:45:07;2.78;;;1.35;;
34353;SDS011;20618;0.000;0.000;2023-07-29T06:47:33;3.25;;;1.65;;
34353;SDS011;20618;0.000;0.000;2023-07-29T06:50:00;3.85;;;1.65;;
34353;SDS011;20618;0.000;0.000;2023-07-29T06:52:26;2.60;;;1.42;;
34353;SDS011;20618;0.000;0.000;2023-07-29T06:54:52;3.40;;;1.60;;
34353;SDS011;20618;0.000;0.000;2023-07-29T06:57:18;2.83;;;1.60;;
34353;SDS011;20618;0.000;0.000;2023-07-29T06:59:44;2.53;;;1.65;;
34353;SDS011;20618;0.000;0.000;2023-07-29T07:02:10;2.55;;;1.38;;
34353;SDS011;20618;0.000;0.000;2023-07-29T07:04:37;2.25;;;1.60;;
34353;SDS011;20618;0.000;0.000;2023-07-29T07:07:03;3.10;;;1.67;;
34353;SDS011;20618;0.000;0.000;2023-07-29T07:09:29;3.55;;;1.50;;
34353;SDS011;20618;0.000;0.000;2023-07-29T07:11:55;5.43;;;2.10;;
34353;SDS011;20618;0.000;0.000;2023-07-29T07:14:21;3.50;;;1.63;;
34353;SDS011;20618;0.000;0.000;2023-07-29T07:16:48;3.33;;;1.67;;
34353;SDS011;20618;0.000;0.000;2023-07-29T07:19:14;3.20;;;1.50;;
34353;SDS011;20618;0.000;0.000;2023-07-29T07:21:40;4.72;;;1.92;;
34353;SDS011;20618;0.000;0.000;2023-07-29T07:24:06;2.85;;;1.42;;
34353;SDS011;20618;0.000;0.000;2023-07-29T07:26:33;3.17;;;1.77;;
34353;SDS011;20618;0.000;0.000;2023-07-29T07:28:59;3.30;;;1.65;;
34353;SDS011;20618;0.000;0.000;2023-07-29T07:31:25;4.00;;;1.80;;
34353;SDS011;20618;0.000;0.000;2023-07-29T07:33:51;5.13;;;2.00;;
34353;SDS011;20618;0.000;0.000;2023-07-29T07:36:17;4.32;;;1.80;;
34353;SDS011;20618;0.000;0.000;2023-07-29T07:38:44;2.95;;;1.70;;
34353;SDS011;20618;0.000;0.000;2023-07-29T07:41:10;2.67;;;1.55;;
34353;SDS011;20618;0.000;0.000;2023-07-29T07:43:36;3.15;;;1.70;;
34353;SDS011;20618;0.000;0.000;2023-07-29T07:46:02;2.42;;;1.50;;
34353;SDS011;20618;0.000;0.000;2023-07-29T07:48:28;3.22;;;1.73;;
34353;SDS011;20618;0.000;0.000;2023-07-29T07:50:55;3.03;;;1.58;;
34353;SDS011;20618;0.000;0.000;2023-07-29T07:53:21;3.20;;;1.83;;
34353;SDS011;20618;0.000;0.000;2023-07-29T07:55:47;4.40;;;1.70;;
34353;SDS011;20618;0.000;0.000;2023-07-29T07:58:13;4.15;;;1.88;;
34353;SDS011;20618;0.000;0.000;2023-07-29T08:00:39;3.80;;;1.60;;
34353;SDS011;20618;0.000;0.000;2023-07-29T08:03:06;3.97;;;2.00;;
34353;SDS011;20618;0.000;0.000;2023-07-29T08:05:32;4.35;;;1.98;;
34353;SDS011;20618;0.000;0.000;2023-07-29T08:07:58;3.13;;;1.50;;
34353;SDS011;20618;0.000;0.000;2023-07-29T08:10:24;2.40;;;1.35;;
34353;SDS011;20618;0.000;0.000;2023-07-29T08:12:51;4.22;;;1.92;;
34353;SDS011;20618;0.000;0.000;2023-07-29T08:15:17;4.90;;;1.88;;
34353;SDS011;20618;0.000;0.000;2023-07-29T08:17:43;4.95;;;1.83;;
34353;SDS011;20618;0.000;0.000;2023-07-29T08:20:09;2.85;;;1.50;;
34353;SDS011;20618;0.000;0.000;2023-07-29T08:22:35;3.67;;;1.52;;
34353;SDS011;20618;0.000;0.000;2023-07-29T08:25:01;3.60;;;1.50;;
34353;SDS011;20618;0.000;0.000;2023-07-29T08:27:27;1.98;;;1.30;;
34353;SDS011;20618;0.000;0.000;2023-07-29T08:29:53;3.60;;;1.90;;
34353;SDS011;20618;0.000;0.000;2023-07-29T08:32:20;3.97;;;1.60;;
34353;SDS011;20618;0.000;0.000;2023-07-29T08:34:46;3.47;;;1.60;;
34353;SDS011;20618;0.000;0.000;2023-07-29T08:37:12;3.55;;;1.60;;
34353;SDS011;20618;0.000;0.000;2023-07-29T08:39:38;2.22;;;1.55;;
34353;SDS011;20618;0.000;0.000;2023-07-29T08:42:06;3.03;;;1.95;;
34353;SDS011;20618;0.000;0.000;2023-07-29T08:44:41;3.65;;;1.73;;
34353;SDS011;20618;0.000;0.000;2023-07-29T08:47:08;3.65;;;1.83;;
34353;SDS011;20618;0.000;0.000;2023-07-29T08:49:34;3.20;;;1.60;;
34353;SDS011;20618;0.000;0.000;2023-07-29T08:52:01;4.22;;;1.85;;
34353;SDS011;20618;0.000;0.000;2023-07-29T08:54:27;2.65;;;1.60;;
34353;SDS011;20618;0.000;0.000;2023-07-29T08:56:53;4.15;;;1.83;;
34353;SDS011;20618;0.000;0.000;2023-07-29T08:59:20;2.72;;;1.50;;
34353;SDS011;20618;0.000;0.000;2023-07-29T09:01:46;3.13;;;1.52;;
34353;SDS011;20618;0.000;0.000;2023-07-29T09:04:13;5.43;;;1.80;;
34353;SDS011;20618;0.000;0.000;2023-07-29T09:06:39;2.53;;;1.50;;
34353;SDS011;20618;0.000;0.000;2023-07-29T09:09:07;4.53;;;1.40;;
34353;SDS011;20618;0.000;0.000;2023-07-29T09:11:33;4.00;;;1.70;;
34353;SDS011;20618;0.000;0.000;2023-07-29T09:13:59;2.72;;;1.50;;
34353;SDS011;20618;0.000;0.000;2023-07-29T09:16:26;4.10;;;1.80;;
34353;SDS011;20618;0.000;0.000;2023-07-29T09:18:52;3.70;;;1.67;;
34353;SDS011;20618;0.000;0.000;2023-07-29T09:21:24;4.13;;;1.75;;
34353;SDS011;20618;0.000;0.000;2023-07-29T09:23:52;3.65;;;1.60;;
34353;SDS011;20618;0.000;0.000;2023-07-29T09:26:27;4.95;;;1.80;;
34353;SDS011;20618;0.000;0.000;2023-07-29T09:28:57;4.15;;;1.60;;
34353;SDS011;20618;0.000;0.000;2023-07-29T09:31:24;3.10;;;1.52;;
34353;SDS011;20618;0.000;0.000;2023-07-29T09:33:58;3.17;;;1.60;;
34353;SDS011;20618;0.000;0.000;2023-07-29T09:36:24;3.20;;;1.60;;
34353;SDS011;20618;0.000;0.000;2023-07-29T09:38:54;2.97;;;1.50;;
34353;SDS011;20618;0.000;0.000;2023-07-29T09:41:24;3.13;;;1.48;;
34353;SDS011;20618;0.000;0.000;2023-07-29T09:44:00;2.60;;;1.60;;
34353;SDS011;20618;0.000;0.000;2023-07-29T09:46:34;4.63;;;1.77;;
34353;SDS011;20618;0.000;0.000;2023-07-29T09:49:04;2.67;;;1.50;;
34353;SDS011;20618;0.000;0.000;2023-07-29T09:51:31;4.63;;;1.48;;
34353;SDS011;20618;0.000;0.000;2023-07-29T09:53:57;3.13;;;1.63;;
34353;SDS011;20618;0.000;0.000;2023-07-29T09:56:27;2.10;;;1.40;;
34353;SDS011;20618;0.000;0.000;2023-07-29T09:58:55;3.60;;;1.63;;
34353;SDS011;20618;0.000;0.000;2023-07-29T10:01:22;2.75;;;1.40;;
34353;SDS011;20618;0.000;0.000;2023-07-29T10:03:48;4.07;;;1.90;;
34353;SDS011;20618;0.000;0.000;2023-07-29T10:06:15;2.33;;;1.45;;
34353;SDS011;20618;0.000;0.000;2023-07-29T10:08:42;3.63;;;1.70;;
34353;SDS011;20618;0.000;0.000;2023-07-29T10:11:09;3.88;;;1.60;;
34353;SDS011;20618;0.000;0.000;2023-07-29T10:13:36;2.92;;;1.60;;
34353;SDS011;20618;0.000;0.000;2023-07-29T10:16:02;2.95;;;1.52;;
34353;SDS011;20618;0.000;0.000;2023-07-29T10:18:30;3.10;;;1.67;;
34353;SDS011;20618;0.000;0.000;2023-07-29T10:20:57;2.25;;;1.40;;
34353;SDS011;20618;0.000;0.000;2023-07-29T10:23:27;2.67;;;1.73;;
34353;SDS011;20618;0.000;0.000;2023-07-29T10:26:03;3.50;;;1.92;;
34353;SDS011;20618;0.000;0.000;2023-07-29T10:28:30;3.42;;;1.60;;
34353;SDS011;20618;0.000;0.000;2023-07-29T10:30:57;1.90;;;1.40;;
34353;SDS011;20618;0.000;0.000;2023-07-29T10:33:23;2.72;;;1.42;;
34353;SDS011;20618;0.000;0.000;2023-07-29T10:35:50;3.70;;;1.50;;
34353;SDS011;20618;0.000;0.000;2023-07-29T10:38:16;3.65;;;1.65;;
34353;SDS011;20618;0.000;0.000;2023-07-29T10:40:43;2.80;;;1.52;;
34353;SDS011;20618;0.000;0.000;2023-07-29T10:43:10;2.80;;;1.60;;
34353;SDS011;20618;0.000;0.000;2023-07-29T10:45:37;3.05;;;1.40;;
34353;SDS011;20618;0.000;0.000;2023-07-29T10:48:39;2.72;;;1.50;;
34353;SDS011;20618;0.000;0.000;2023-07-29T10:53:47;3.40;;;1.60;;
34353;SDS011;20618;0.000;0.000;2023-07-29T10:56:13;3.45;;;1.45;;
34353;SDS011;20618;0.000;0.000;2023-07-29T10:58:50;3.45;;;1.48;;
34353;SDS011;20618;0.000;0.000;2023-07-29T11:01:26;3.88;;;1.77;;
34353;SDS011;20618;0.000;0.000;2023-07-29T11:07:23;2.97;;;1.70;;
34353;SDS011;20618;0.000;0.000;2023-07-29T11:09:39;2.65;;;1.70;;
34353;SDS011;20618;0.000;0.000;2023-07-29T11:14:55;2.70;;;1.52;;
34353;SDS011;20618;0.000;0.000;2023-07-29T11:17:21;2.72;;;1.50;;
34353;SDS011;20618;0.000;0.000;2023-07-29T11:19:47;3.60;;;1.80;;
34353;SDS011;20618;0.000;0.000;2023-07-29T11:22:14;3.15;;;1.50;;
34353;SDS011;20618;0.000;0.000;2023-07-29T11:24:41;2.55;;;1.45;;
34353;SDS011;20618;0.000;0.000;2023-07-29T11:27:11;3.38;;;1.77;;
34353;SDS011;20618;0.000;0.000;2023-07-29T11:29:37;3.10;;;1.70;;
34353;SDS011;20618;0.000;0.000;2023-07-29T11:32:03;3.05;;;1.60;;
34353;SDS011;20618;0.000;0.000;2023-07-29T11:34:32;3.55;;;1.58;;
34353;SDS011;20618;0.000;0.000;2023-07-29T11:36:59;2.65;;;1.70;;
34353;SDS011;20618;0.000;0.000;2023-07-29T11:39:25;3.22;;;1.77;;
34353;SDS011;20618;0.000;0.000;2023-07-29T11:41:51;2.60;;;1.60;;
34353;SDS011;20618;0.000;0.000;2023-07-29T11:44:17;2.88;;;1.45;;
34353;SDS011;20618;0.000;0.000;2023-07-29T11:46:44;2.92;;;1.40;;
34353;SDS011;20618;0.000;0.000;2023-07-29T11:49:10;2.90;;;1.45;;
34353;SDS011;20618;0.000;0.000;2023-07-29T11:51:36;2.58;;;1.40;;
34353;SDS011;20618;0.000;0.000;2023-07-29T11:54:03;2.83;;;2.08;;
34353;SDS011;20618;0.000;0.000;2023-07-29T11:56:29;1.75;;;1.25;;
34353;SDS011;20618;0.000;0.000;2023-07-29T11:58:55;2.90;;;1.70;;
34353;SDS011;20618;0.000;0.000;2023-07-29T12:01:22;2.42;;;1.48;;
34353;SDS011;20618;0.000;0.000;2023-07-29T12:03:49;2.60;;;1.45;;
34353;SDS011;20618;0.000;0.000;2023-07-29T12:06:16;2.60;;;1.50;;
34353;SDS011;20618;0.000;0.000;2023-07-29T12:08:42;3.38;;;1.80;;
34353;SDS011;20618;0.000;0.000;2023-07-29T12:11:09;2.70;;;1.50;;
34353;SDS011;20618;0.000;0.000;2023-07-29T12:13:38;3.55;;;1.60;;
34353;SDS011;20618;0.000;0.000;2023-07-29T12:16:04;2.60;;;1.50;;
34353;SDS011;20618;0.000;0.000;2023-07-29T12:18:34;2.00;;;1.40;;
34353;SDS011;20618;0.000;0.000;2023-07-29T12:21:00;2.88;;;1.42;;
34353;SDS011;20618;0.000;0.000;2023-07-29T12:23:26;4.68;;;1.63;;
34353;SDS011;20618;0.000;0.000;2023-07-29T12:25:56;4.53;;;1.80;;
34353;SDS011;20618;0.000;0.000;2023-07-29T12:28:23;3.00;;;1.48;;
34353;SDS011;20618;0.000;0.000;2023-07-29T12:30:55;3.92;;;1.65;;
34353;SDS011;20618;0.000;0.000;2023-07-29T12:33:36;3.33;;;1.55;;
34353;SDS011;20618;0.000;0.000;2023-07-29T12:36:04;2.33;;;1.52;;
34353;SDS011;20618;0.000;0.000;2023-07-29T12:38:30;4.35;;;1.77;;
34353;SDS011;20618;0.000;0.000;2023-07-29T12:40:56;3.35;;;1.65;;
34353;SDS011;20618;0.000;0.000;2023-07-29T12:43:23;3.10;;;1.60;;
34353;SDS011;20618;0.000;0.000;2023-07-29T12:45:49;5.22;;;1.58;;
34353;SDS011;20618;0.000;0.000;2023-07-29T12:48:15;4.32;;;1.73;;
34353;SDS011;20618;0.000;0.000;2023-07-29T12:50:41;3.65;;;1.63;;
34353;SDS011;20618;0.000;0.000;2023-07-29T12:53:08;2.80;;;1.75;;
34353;SDS011;20618;0.000;0.000;2023-07-29T12:55:37;3.05;;;1.60;;
34353;SDS011;20618;0.000;0.000;2023-07-29T12:58:04;2.35;;;1.60;;
34353;SDS011;20618;0.000;0.000;2023-07-29T13:00:30;4.95;;;1.60;;
34353;SDS011;20618;0.000;0.000;2023-07-29T13:02:56;2.78;;;1.17;;
34353;SDS011;20618;0.000;0.000;2023-07-29T13:05:22;1.77;;;1.20;;
34353;SDS011;20618;0.000;0.000;2023-07-29T13:07:48;3.00;;;1.30;;
34353;SDS011;20618;0.000;0.000;2023-07-29T13:10:15;1.80;;;1.08;;
34353;SDS011;20618;0.000;0.000;2023-07-29T13:12:41;1.95;;;1.20;;
34353;SDS011;20618;0.000;0.000;2023-07-29T13:15:07;2.08;;;1.15;;
34353;SDS011;20618;0.000;0.000;2023-07-29T13:17:33;2.17;;;1.23;;
34353;SDS011;20618;0.000;0.000;2023-07-29T13:20:00;4.72;;;1.48;;
34353;SDS011;20618;0.000;0.000;2023-07-29T13:22:26;2.42;;;1.30;;
34353;SDS011;20618;0.000;0.000;2023-07-29T13:24:52;1.63;;;1.10;;
34353;SDS011;20618;0.000;0.000;2023-07-29T13:27:18;1.98;;;1.15;;
34353;SDS011;20618;0.000;0.000;2023-07-29T13:29:45;1.92;;;1.27;;
34353;SDS011;20618;0.000;0.000;2023-07-29T13:32:11;2.33;;;1.10;;
34353;SDS011;20618;0.000;0.000;2023-07-29T13:34:38;2.03;;;1.25;;
34353;SDS011;20618;0.000;0.000;2023-07-29T13:37:05;2.15;;;1.30;;
34353;SDS011;20618;0.000;0.000;2023-07-29T13:39:31;1.88;;;1.08;;
34353;SDS011;20618;0.000;0.000;2023-07-29T13:41:57;2.97;;;1.38;;
34353;SDS011;20618;0.000;0.000;2023-07-29T13:44:23;2.35;;;1.45;;
34353;SDS011;20618;0.000;0.000;2023-07-29T13:46:50;1.60;;;1.15;;
34353;SDS011;20618;0.000;0.000;2023-07-29T13:49:16;1.80;;;1.10;;
34353;SDS011;20618;0.000;0.000;2023-07-29T13:51:42;1.65;;;1.00;;
34353;SDS011;20618;0.000;0.000;2023-07-29T13:54:08;1.85;;;1.00;;
34353;SDS011;20618;0.000;0.000;2023-07-29T13:56:35;2.05;;;1.17;;
34353;SDS011;20618;0.000;0.000;2023-07-29T13:59:01;2.05;;;1.25;;
34353;SDS011;20618;0.000;0.000;2023-07-29T14:01:27;1.95;;;1.10;;
34353;SDS011;20618;0.000;0.000;2023-07-29T14:03:53;2.65;;;1.30;;
34353;SDS011;20618;0.000;0.000;2023-07-29T14:06:19;1.95;;;1.23;;
34353;SDS011;20618;0.000;0.000;2023-07-29T14:08:45;1.48;;;1.00;;
34353;SDS011;20618;0.000;0.000;2023-07-29T14:11:12;2.15;;;1.17;;
34353;SDS011;20618;0.000;0.000;2023-07-29T14:13:38;1.58;;;1.10;;
34353;SDS011;20618;0.000;0.000;2023-07-29T14:16:04;2.22;;;1.45;;
34353;SDS011;20618;0.000;0.000;2023-07-29T14:18:30;2.10;;;1.40;;
34353;SDS011;20618;0.000;0.000;2023-07-29T14:20:56;1.85;;;1.20;;
34353;SDS011;20618;0.000;0.000;2023-07-29T14:23:22;2.67;;;1.23;;
34353;SDS011;20618;0.000;0.000;2023-07-29T14:25:48;1.60;;;1.10;;
34353;SDS011;20618;0.000;0.000;2023-07-29T14:28:15;2.63;;;1.23;;
34353;SDS011;20618;0.000;0.000;2023-07-29T14:30:41;3.05;;;1.20;;
34353;SDS011;20618;0.000;0.000;2023-07-29T14:33:07;2.75;;;1.40;;
34353;SDS011;20618;0.000;0.000;2023-07-29T14:35:33;2.00;;;1.23;;
34353;SDS011;20618;0.000;0.000;2023-07-29T14:37:59;1.73;;;1.08;;
34353;SDS011;20618;0.000;0.000;2023-07-29T14:40:25;2.42;;;1.17;;
34353;SDS011;20618;0.000;0.000;2023-07-29T14:42:52;1.75;;;0.98;;
34353;SDS011;20618;0.000;0.000;2023-07-29T14:45:18;1.63;;;1.05;;
34353;SDS011;20618;0.000;0.000;2023-07-29T14:47:44;2.63;;;1.25;;
34353;SDS011;20618;0.000;0.000;2023-07-29T14:50:11;2.95;;;1.35;;
34353;SDS011;20618;0.000;0.000;2023-07-29T14:52:37;2.00;;;1.30;;
34353;SDS011;20618;0.000;0.000;2023-07-29T14:55:03;1.92;;;1.27;;
34353;SDS011;20618;0.000;0.000;2023-07-29T14:57:29;2.05;;;1.38;;
34353;SDS011;20618;0.000;0.000;2023-07-29T14:59:55;2.67;;;1.17;;
34353;SDS011;20618;0.000;0.000;2023-07-29T15:02:22;1.73;;;1.20;;
34353;SDS011;20618;0.000;0.000;2023-07-29T15:04:48;2.80;;;1.40;;
34353;SDS011;20618;0.000;0.000;2023-07-29T15:07:14;2.00;;;1.23;;
34353;SDS011;20618;0.000;0.000;2023-07-29T15:09:40;2.03;;;1.30;;
34353;SDS011;20618;0.000;0.000;2023-07-29T15:12:07;1.58;;;1.10;;
34353;SDS011;20618;0.000;0.000;2023-07-29T15:14:33;1.70;;;1.20;;
34353;SDS011;20618;0.000;0.000;2023-07-29T15:16:59;1.83;;;1.52;;